sensor_id;sensor_type;location;lat;lon;timestamp;pressure;altitude;pressure_sealevel;temperature;humidity
36964;BME280;22878;48.616;35.326;2023-02-16T00:01:22;101882.12;;;-3.88;100.00
36964;BME280;22878;48.616;35.326;2023-02-16T00:03:48;101884.04;;;-3.90;100.00
36964;BME280;22878;48.616;35.326;2023-02-16T00:06:14;101887.30;;;-3.89;100.00
36964;BME280;22878;48.616;35.326;2023-02-16T00:08:45;101889.21;;;-3.89;100.00
36964;BME280;22878;48.616;35.326;2023-02-16T00:11:34;101891.09;;;-3.90;100.00
36964;BME280;22878;48.616;35.326;2023-02-16T00:17:40;101898.64;;;-3.92;100.00
36964;BME280;22878;48.616;35.326;2023-02-16T00:23:26;101904.39;;;-3.87;100.00
36964;BME280;22878;48.616;35.326;2023-02-16T00:25:52;101907.09;;;-3.84;100.00
36964;BME280;22878;48.616;35.326;2023-02-16T00:28:19;101906.08;;;-3.83;100.00
36964;BME280;22878;48.616;35.326;2023-02-16T00:30:45;101905.11;;;-3.79;100.00
36964;BME280;22878;48.616;35.326;2023-02-16T00:33:19;101905.03;;;-3.79;100.00
36964;BME280;22878;48.616;35.326;2023-02-16T00:35:44;101905.05;;;-3.77;100.00
36964;BME280;22878;48.616;35.326;2023-02-16T00:38:11;101905.39;;;-3.75;100.00
36964;BME280;22878;48.616;35.326;2023-02-16T00:40:37;101906.96;;;-3.73;100.00
36964;BME280;22878;48.616;35.326;2023-02-16T00:43:03;101907.21;;;-3.71;100.00
36964;BME280;22878;48.616;35.326;2023-02-16T00:45:28;101902.48;;;-3.72;100.00
36964;BME280;22878;48.616;35.326;2023-02-16T00:47:56;101901.37;;;-3.73;100.00
36964;BME280;22878;48.616;35.326;2023-02-16T00:50:32;101898.61;;;-3.72;100.00
36964;BME280;22878;48.616;35.326;2023-02-16T00:52:59;101895.92;;;-3.71;100.00
36964;BME280;22878;48.616;35.326;2023-02-16T00:55:33;101894.63;;;-3.70;100.00
36964;BME280;22878;48.616;35.326;2023-02-16T00:58:25;101895.51;;;-3.70;100.00
36964;BME280;22878;48.616;35.326;2023-02-16T01:01:05;101898.34;;;-3.70;100.00
36964;BME280;22878;48.616;35.326;2023-02-16T01:06:53;101898.43;;;-3.70;100.00
36964;BME280;22878;48.616;35.326;2023-02-16T01:09:38;101894.05;;;-3.70;100.00
36964;BME280;22878;48.616;35.326;2023-02-16T01:12:21;101893.16;;;-3.70;100.00
36964;BME280;22878;48.616;35.326;2023-02-16T01:14:51;101893.61;;;-3.69;100.00
36964;BME280;22878;48.616;35.326;2023-02-16T01:17:17;101897.52;;;-3.67;100.00
36964;BME280;22878;48.616;35.326;2023-02-16T01:23:04;101897.41;;;-3.68;100.00
36964;BME280;22878;48.616;35.326;2023-02-16T01:25:29;101895.88;;;-3.68;100.00
36964;BME280;22878;48.616;35.326;2023-02-16T01:27:55;101899.18;;;-3.68;100.00
36964;BME280;22878;48.616;35.326;2023-02-16T01:30:22;101898.91;;;-3.67;100.00
36964;BME280;22878;48.616;35.326;2023-02-16T01:32:49;101897.98;;;-3.68;100.00
36964;BME280;22878;48.616;35.326;2023-02-16T01:35:29;101898.85;;;-3.70;100.00
36964;BME280;22878;48.616;35.326;2023-02-16T01:41:27;101893.80;;;-3.81;100.00
36964;BME280;22878;48.616;35.326;2023-02-16T01:44:00;101898.13;;;-3.84;100.00
36964;BME280;22878;48.616;35.326;2023-02-16T01:46:58;101899.69;;;-3.90;100.00
36964;BME280;22878;48.616;35.326;2023-02-16T01:49:24;101903.42;;;-3.97;100.00
36964;BME280;22878;48.616;35.326;2023-02-16T01:52:11;101910.64;;;-4.01;100.00
36964;BME280;22878;48.616;35.326;2023-02-16T01:55:09;101908.50;;;-4.09;100.00
36964;BME280;22878;48.616;35.326;2023-02-16T01:57:42;101907.61;;;-4.15;100.00
36964;BME280;22878;48.616;35.326;2023-02-16T02:00:15;101911.36;;;-4.20;100.00
36964;BME280;22878;48.616;35.326;2023-02-16T02:02:45;101912.55;;;-4.25;100.00
36964;BME280;22878;48.616;35.326;2023-02-16T02:05:22;101915.74;;;-4.32;100.00
36964;BME280;22878;48.616;35.326;2023-02-16T02:11:45;101925.35;;;-4.46;100.00
36964;BME280;22878;48.616;35.326;2023-02-16T02:14:20;101923.50;;;-4.53;100.00
36964;BME280;22878;48.616;35.326;2023-02-16T02:16:53;101927.52;;;-4.55;100.00
36964;BME280;22878;48.616;35.326;2023-02-16T02:23:21;101923.80;;;-4.66;100.00
36964;BME280;22878;48.616;35.326;2023-02-16T02:28:53;101923.27;;;-4.76;100.00
36964;BME280;22878;48.616;35.326;2023-02-16T02:34:29;101921.94;;;-4.85;100.00
36964;BME280;22878;48.616;35.326;2023-02-16T02:37:09;101926.23;;;-4.93;100.00
36964;BME280;22878;48.616;35.326;2023-02-16T02:44:56;101933.05;;;-5.10;100.00
36964;BME280;22878;48.616;35.326;2023-02-16T02:47:43;101930.71;;;-5.13;100.00
36964;BME280;22878;48.616;35.326;2023-02-16T02:53:27;101936.47;;;-5.22;100.00
36964;BME280;22878;48.616;35.326;2023-02-16T02:55:55;101938.10;;;-5.25;100.00
36964;BME280;22878;48.616;35.326;2023-02-16T02:58:40;101939.29;;;-5.29;100.00
36964;BME280;22878;48.616;35.326;2023-02-16T03:01:37;101937.98;;;-5.30;100.00
36964;BME280;22878;48.616;35.326;2023-02-16T03:04:05;101938.67;;;-5.30;100.00
36964;BME280;22878;48.616;35.326;2023-02-16T03:06:37;101943.78;;;-5.32;100.00
36964;BME280;22878;48.616;35.326;2023-02-16T03:12:08;101946.50;;;-5.42;100.00
36964;BME280;22878;48.616;35.326;2023-02-16T03:14:58;101946.79;;;-5.43;100.00
36964;BME280;22878;48.616;35.326;2023-02-16T03:20:47;101949.73;;;-5.48;100.00
36964;BME280;22878;48.616;35.326;2023-02-16T03:23:32;101953.86;;;-5.51;100.00
36964;BME280;22878;48.616;35.326;2023-02-16T03:26:17;101956.33;;;-5.54;100.00
36964;BME280;22878;48.616;35.326;2023-02-16T03:29:02;101955.20;;;-5.57;100.00
36964;BME280;22878;48.616;35.326;2023-02-16T03:31:48;101956.32;;;-5.60;100.00
36964;BME280;22878;48.616;35.326;2023-02-16T03:34:16;101948.84;;;-5.58;100.00
36964;BME280;22878;48.616;35.326;2023-02-16T03:36:45;101952.10;;;-5.62;100.00
36964;BME280;22878;48.616;35.326;2023-02-16T03:39:11;101955.37;;;-5.63;100.00
36964;BME280;22878;48.616;35.326;2023-02-16T03:41:41;101956.21;;;-5.65;100.00
36964;BME280;22878;48.616;35.326;2023-02-16T03:44:07;101959.16;;;-5.67;100.00
36964;BME280;22878;48.616;35.326;2023-02-16T03:46:33;101958.42;;;-5.67;100.00
36964;BME280;22878;48.616;35.326;2023-02-16T03:48:58;101966.06;;;-5.68;100.00
36964;BME280;22878;48.616;35.326;2023-02-16T03:51:24;101968.34;;;-5.68;100.00
36964;BME280;22878;48.616;35.326;2023-02-16T03:53:52;101965.09;;;-5.72;100.00
36964;BME280;22878;48.616;35.326;2023-02-16T03:56:20;101962.34;;;-5.75;100.00
36964;BME280;22878;48.616;35.326;2023-02-16T03:58:45;101962.40;;;-5.75;100.00
36964;BME280;22878;48.616;35.326;2023-02-16T04:01:11;101966.29;;;-5.76;100.00
36964;BME280;22878;48.616;35.326;2023-02-16T04:03:36;101967.71;;;-5.79;100.00
36964;BME280;22878;48.616;35.326;2023-02-16T04:06:02;101973.20;;;-5.81;100.00
36964;BME280;22878;48.616;35.326;2023-02-16T04:08:28;101976.83;;;-5.83;100.00
36964;BME280;22878;48.616;35.326;2023-02-16T04:10:53;101980.29;;;-5.85;100.00
36964;BME280;22878;48.616;35.326;2023-02-16T04:13:22;101980.29;;;-5.87;100.00
36964;BME280;22878;48.616;35.326;2023-02-16T04:19:08;101988.17;;;-5.94;100.00
36964;BME280;22878;48.616;35.326;2023-02-16T04:21:35;101990.38;;;-5.97;100.00
36964;BME280;22878;48.616;35.326;2023-02-16T04:24:00;101994.31;;;-5.98;100.00
36964;BME280;22878;48.616;35.326;2023-02-16T04:26:26;101994.19;;;-5.99;100.00
36964;BME280;22878;48.616;35.326;2023-02-16T04:28:52;101993.47;;;-6.01;100.00
36964;BME280;22878;48.616;35.326;2023-02-16T04:34:39;101994.27;;;-6.07;100.00
36964;BME280;22878;48.616;35.326;2023-02-16T04:37:04;101993.41;;;-6.07;100.00
36964;BME280;22878;48.616;35.326;2023-02-16T04:39:30;101995.27;;;-6.09;100.00
36964;BME280;22878;48.616;35.326;2023-02-16T04:41:56;101998.54;;;-6.10;100.00
36964;BME280;22878;48.616;35.326;2023-02-16T04:44:21;102000.77;;;-6.10;100.00
36964;BME280;22878;48.616;35.326;2023-02-16T04:46:47;102003.89;;;-6.09;100.00
36964;BME280;22878;48.616;35.326;2023-02-16T04:49:12;102003.35;;;-6.09;100.00
36964;BME280;22878;48.616;35.326;2023-02-16T04:55:00;102005.36;;;-6.08;100.00
36964;BME280;22878;48.616;35.326;2023-02-16T05:00:47;101999.34;;;-6.09;100.00
36964;BME280;22878;48.616;35.326;2023-02-16T05:06:35;101998.89;;;-5.97;100.00
36964;BME280;22878;48.616;35.326;2023-02-16T05:09:01;102000.81;;;-5.90;100.00
36964;BME280;22878;48.616;35.326;2023-02-16T05:11:27;101999.23;;;-5.83;100.00
36964;BME280;22878;48.616;35.326;2023-02-16T05:14:18;102002.67;;;-5.76;100.00
36964;BME280;22878;48.616;35.326;2023-02-16T05:17:02;102002.25;;;-5.68;100.00
36964;BME280;22878;48.616;35.326;2023-02-16T05:19:28;102002.97;;;-5.61;100.00
36964;BME280;22878;48.616;35.326;2023-02-16T05:21:53;102001.63;;;-5.55;100.00
36964;BME280;22878;48.616;35.326;2023-02-16T05:24:19;101998.70;;;-5.49;100.00
36964;BME280;22878;48.616;35.326;2023-02-16T05:26:44;101996.40;;;-5.40;100.00
36964;BME280;22878;48.616;35.326;2023-02-16T05:29:10;102000.16;;;-5.28;100.00
36964;BME280;22878;48.616;35.326;2023-02-16T05:31:35;102001.77;;;-5.13;100.00
36964;BME280;22878;48.616;35.326;2023-02-16T05:34:01;102010.94;;;-4.93;100.00
36964;BME280;22878;48.616;35.326;2023-02-16T05:39:48;102015.41;;;-4.41;100.00
36964;BME280;22878;48.616;35.326;2023-02-16T05:42:13;102019.23;;;-4.15;100.00
36964;BME280;22878;48.616;35.326;2023-02-16T05:58:05;102021.55;;;-2.36;100.00
36964;BME280;22878;48.616;35.326;2023-02-16T06:13:57;102017.86;;;1.04;100.00
36964;BME280;22878;48.616;35.326;2023-02-16T06:29:50;102010.71;;;6.26;86.43
36964;BME280;22878;48.616;35.326;2023-02-16T06:38:58;102008.84;;;10.51;55.62
36964;BME280;22878;48.616;35.326;2023-02-16T06:44:46;102016.05;;;12.44;47.85
36964;BME280;22878;48.616;35.326;2023-02-16T06:47:12;102020.14;;;12.79;47.58
36964;BME280;22878;48.616;35.326;2023-02-16T06:52:59;102019.01;;;13.87;42.92
36964;BME280;22878;48.616;35.326;2023-02-16T06:58:46;102018.17;;;14.47;39.01
36964;BME280;22878;48.616;35.326;2023-02-16T07:01:12;102020.39;;;14.63;39.47
36964;BME280;22878;48.616;35.326;2023-02-16T07:03:39;102021.71;;;14.50;38.87
36964;BME280;22878;48.616;35.326;2023-02-16T07:06:05;102020.88;;;14.93;37.52
36964;BME280;22878;48.616;35.326;2023-02-16T07:08:30;102011.63;;;15.56;37.11
36964;BME280;22878;48.616;35.326;2023-02-16T07:10:56;102013.05;;;16.02;36.44
36964;BME280;22878;48.616;35.326;2023-02-16T07:13:22;102014.17;;;16.74;35.42
36964;BME280;22878;48.616;35.326;2023-02-16T07:15:48;102010.40;;;17.21;35.24
36964;BME280;22878;48.616;35.326;2023-02-16T07:18:14;102008.16;;;17.56;33.88
36964;BME280;22878;48.616;35.326;2023-02-16T07:24:01;102004.32;;;18.14;32.07
36964;BME280;22878;48.616;35.326;2023-02-16T07:26:28;102003.78;;;18.51;32.24
36964;BME280;22878;48.616;35.326;2023-02-16T07:28:53;102007.21;;;18.70;30.80
36964;BME280;22878;48.616;35.326;2023-02-16T07:31:19;102003.45;;;19.04;31.51
36964;BME280;22878;48.616;35.326;2023-02-16T07:33:45;102000.80;;;19.35;31.35
36964;BME280;22878;48.616;35.326;2023-02-16T07:39:41;102004.18;;;19.19;29.25
36964;BME280;22878;48.616;35.326;2023-02-16T07:42:09;101998.39;;;18.65;29.02
36964;BME280;22878;48.616;35.326;2023-02-16T07:44:44;101994.20;;;19.07;30.36
36964;BME280;22878;48.616;35.326;2023-02-16T07:47:09;101989.57;;;19.96;31.16
36964;BME280;22878;48.616;35.326;2023-02-16T08:03:02;101987.52;;;21.16;27.79
36964;BME280;22878;48.616;35.326;2023-02-16T08:05:27;101988.20;;;21.44;27.58
36964;BME280;22878;48.616;35.326;2023-02-16T08:07:53;101991.24;;;21.57;28.01
36964;BME280;22878;48.616;35.326;2023-02-16T08:10:19;101985.66;;;21.75;27.37
36964;BME280;22878;48.616;35.326;2023-02-16T08:12:46;101987.35;;;21.78;26.58
36964;BME280;22878;48.616;35.326;2023-02-16T08:15:14;101990.11;;;21.54;26.29
36964;BME280;22878;48.616;35.326;2023-02-16T08:17:39;101987.80;;;21.07;26.38
36964;BME280;22878;48.616;35.326;2023-02-16T08:20:07;101991.69;;;20.85;27.52
36964;BME280;22878;48.616;35.326;2023-02-16T08:22:34;101990.13;;;21.22;27.54
36964;BME280;22878;48.616;35.326;2023-02-16T08:25:01;101987.63;;;21.16;26.36
36964;BME280;22878;48.616;35.326;2023-02-16T08:27:27;101989.06;;;20.58;26.15
36964;BME280;22878;48.616;35.326;2023-02-16T08:29:53;101989.68;;;19.84;26.63
36964;BME280;22878;48.616;35.326;2023-02-16T08:32:19;101983.89;;;19.36;27.49
36964;BME280;22878;48.616;35.326;2023-02-16T08:34:45;101987.50;;;19.29;28.10
36964;BME280;22878;48.616;35.326;2023-02-16T08:37:12;101986.69;;;19.50;27.75
36964;BME280;22878;48.616;35.326;2023-02-16T08:39:38;101981.17;;;19.41;27.37
36964;BME280;22878;48.616;35.326;2023-02-16T08:42:04;101983.75;;;19.42;27.79
36964;BME280;22878;48.616;35.326;2023-02-16T08:44:30;101980.98;;;19.93;27.95
36964;BME280;22878;48.616;35.326;2023-02-16T08:46:58;101985.21;;;20.50;27.26
36964;BME280;22878;48.616;35.326;2023-02-16T08:49:25;101995.15;;;20.72;26.27
36964;BME280;22878;48.616;35.326;2023-02-16T08:51:56;101993.56;;;20.44;25.91
36964;BME280;22878;48.616;35.326;2023-02-16T08:57:44;101992.02;;;17.66;26.95
36964;BME280;22878;48.616;35.326;2023-02-16T09:00:10;102000.01;;;16.01;28.89
36964;BME280;22878;48.616;35.326;2023-02-16T09:02:57;101996.52;;;14.49;30.57
36964;BME280;22878;48.616;35.326;2023-02-16T09:05:23;101993.38;;;13.48;31.78
36964;BME280;22878;48.616;35.326;2023-02-16T09:07:49;102000.05;;;12.62;32.79
36964;BME280;22878;48.616;35.326;2023-02-16T09:10:16;101996.95;;;11.30;33.51
36964;BME280;22878;48.616;35.326;2023-02-16T09:12:43;101998.86;;;9.85;35.85
36964;BME280;22878;48.616;35.326;2023-02-16T09:18:34;102004.09;;;7.76;39.11
36964;BME280;22878;48.616;35.326;2023-02-16T09:21:09;101998.84;;;7.15;40.13
36964;BME280;22878;48.616;35.326;2023-02-16T09:23:37;102000.39;;;6.93;40.68
36964;BME280;22878;48.616;35.326;2023-02-16T09:26:04;101999.33;;;6.44;41.21
36964;BME280;22878;48.616;35.326;2023-02-16T09:28:38;101992.77;;;5.83;41.71
36964;BME280;22878;48.616;35.326;2023-02-16T09:31:09;101994.34;;;5.39;44.09
36964;BME280;22878;48.616;35.326;2023-02-16T09:33:36;101991.35;;;5.36;44.55
36964;BME280;22878;48.616;35.326;2023-02-16T09:36:07;101991.80;;;5.11;44.29
36964;BME280;22878;48.616;35.326;2023-02-16T09:38:35;101989.48;;;4.46;44.91
36964;BME280;22878;48.616;35.326;2023-02-16T09:44:12;101988.74;;;3.70;47.87
36964;BME280;22878;48.616;35.326;2023-02-16T09:46:41;101988.02;;;3.61;48.75
36964;BME280;22878;48.616;35.326;2023-02-16T09:49:41;101990.85;;;3.68;47.98
36964;BME280;22878;48.616;35.326;2023-02-16T09:54:56;101987.48;;;3.31;49.02
36964;BME280;22878;48.616;35.326;2023-02-16T09:57:41;101990.82;;;3.22;49.43
36964;BME280;22878;48.616;35.326;2023-02-16T10:08:15;101978.70;;;3.31;51.06
36964;BME280;22878;48.616;35.326;2023-02-16T10:23:52;101976.36;;;2.82;49.46
36964;BME280;22878;48.616;35.326;2023-02-16T10:29:05;101968.77;;;2.77;49.59
36964;BME280;22878;48.616;35.326;2023-02-16T10:34:46;101967.94;;;2.61;50.69
36964;BME280;22878;48.616;35.326;2023-02-16T10:37:24;101966.19;;;2.68;50.89
36964;BME280;22878;48.616;35.326;2023-02-16T10:45:28;101967.49;;;3.33;51.03
36964;BME280;22878;48.616;35.326;2023-02-16T10:47:56;101967.93;;;3.35;49.05
36964;BME280;22878;48.616;35.326;2023-02-16T10:50:42;101970.29;;;3.36;49.79
36964;BME280;22878;48.616;35.326;2023-02-16T10:53:17;101971.35;;;3.50;49.29
36964;BME280;22878;48.616;35.326;2023-02-16T10:55:44;101966.66;;;3.58;48.72
36964;BME280;22878;48.616;35.326;2023-02-16T11:01:38;101965.49;;;3.27;48.93
36964;BME280;22878;48.616;35.326;2023-02-16T11:17:46;101971.10;;;2.56;50.32
36964;BME280;22878;48.616;35.326;2023-02-16T11:26:28;101970.92;;;2.18;51.31
36964;BME280;22878;48.616;35.326;2023-02-16T11:32:11;101965.92;;;2.18;52.27
36964;BME280;22878;48.616;35.326;2023-02-16T11:34:48;101958.51;;;2.25;51.64
36964;BME280;22878;48.616;35.326;2023-02-16T11:37:17;101955.91;;;2.32;51.68
36964;BME280;22878;48.616;35.326;2023-02-16T11:43:16;101957.98;;;2.45;52.34
36964;BME280;22878;48.616;35.326;2023-02-16T12:14:41;101950.00;;;2.24;51.06
36964;BME280;22878;48.616;35.326;2023-02-16T12:23:42;101952.67;;;2.00;51.10
36964;BME280;22878;48.616;35.326;2023-02-16T12:45:03;101955.27;;;1.82;52.91
36964;BME280;22878;48.616;35.326;2023-02-16T12:50:54;101953.34;;;1.90;52.49
36964;BME280;22878;48.616;35.326;2023-02-16T12:53:32;101949.30;;;1.93;51.82
36964;BME280;22878;48.616;35.326;2023-02-16T12:56:08;101951.10;;;1.94;51.49
36964;BME280;22878;48.616;35.326;2023-02-16T13:01:59;101943.77;;;2.01;51.55
36964;BME280;22878;48.616;35.326;2023-02-16T13:07:51;101945.86;;;1.92;51.18
36964;BME280;22878;48.616;35.326;2023-02-16T13:10:22;101949.29;;;1.81;50.45
36964;BME280;22878;48.616;35.326;2023-02-16T13:17:54;101948.65;;;1.66;51.05
36964;BME280;22878;48.616;35.326;2023-02-16T13:20:21;101945.86;;;1.63;50.71
36964;BME280;22878;48.616;35.326;2023-02-16T13:25:33;101936.92;;;1.67;51.62
36964;BME280;22878;48.616;35.326;2023-02-16T13:28:23;101933.34;;;1.67;51.11
36964;BME280;22878;48.616;35.326;2023-02-16T13:31:24;101935.90;;;1.65;51.61
36964;BME280;22878;48.616;35.326;2023-02-16T13:45:27;101927.05;;;1.73;52.26
36964;BME280;22878;48.616;35.326;2023-02-16T13:47:55;101926.17;;;1.56;51.61
36964;BME280;22878;48.616;35.326;2023-02-16T13:52:50;101923.69;;;1.42;52.03
36964;BME280;22878;48.616;35.326;2023-02-16T13:55:37;101923.55;;;1.36;52.02
36964;BME280;22878;48.616;35.326;2023-02-16T14:00:41;101924.42;;;1.20;52.45
36964;BME280;22878;48.616;35.326;2023-02-16T14:05:48;101925.54;;;1.14;52.67
36964;BME280;22878;48.616;35.326;2023-02-16T14:18:36;101923.64;;;0.91;53.35
36964;BME280;22878;48.616;35.326;2023-02-16T14:21:14;101917.77;;;0.86;53.61
36964;BME280;22878;48.616;35.326;2023-02-16T14:23:41;101911.22;;;0.80;53.68
36964;BME280;22878;48.616;35.326;2023-02-16T14:26:07;101908.06;;;0.73;53.89
36964;BME280;22878;48.616;35.326;2023-02-16T14:29:13;101904.59;;;0.66;53.64
36964;BME280;22878;48.616;35.326;2023-02-16T14:31:48;101903.84;;;0.58;53.77
36964;BME280;22878;48.616;35.326;2023-02-16T14:34:23;101899.31;;;0.50;53.68
36964;BME280;22878;48.616;35.326;2023-02-16T14:37:26;101896.39;;;0.41;54.04
36964;BME280;22878;48.616;35.326;2023-02-16T14:39:54;101905.07;;;0.31;54.34
36964;BME280;22878;48.616;35.326;2023-02-16T14:42:33;101907.44;;;0.19;54.26
36964;BME280;22878;48.616;35.326;2023-02-16T14:56:45;101906.27;;;-0.52;56.40
36964;BME280;22878;48.616;35.326;2023-02-16T14:59:36;101906.86;;;-0.65;57.29
36964;BME280;22878;48.616;35.326;2023-02-16T15:01:59;101903.59;;;-0.76;58.11
36964;BME280;22878;48.616;35.326;2023-02-16T15:04:31;101907.61;;;-0.86;57.46
36964;BME280;22878;48.616;35.326;2023-02-16T15:06:59;101905.12;;;-1.01;57.84
36964;BME280;22878;48.616;35.326;2023-02-16T15:09:32;101905.08;;;-1.13;58.40
36964;BME280;22878;48.616;35.326;2023-02-16T15:12:09;101906.16;;;-1.24;59.02
36964;BME280;22878;48.616;35.326;2023-02-16T15:17:36;101908.55;;;-1.48;61.06
36964;BME280;22878;48.616;35.326;2023-02-16T15:20:36;101908.40;;;-1.60;63.02
36964;BME280;22878;48.616;35.326;2023-02-16T15:23:25;101908.49;;;-1.72;64.49
36964;BME280;22878;48.616;35.326;2023-02-16T15:26:03;101908.86;;;-1.81;67.00
36964;BME280;22878;48.616;35.326;2023-02-16T15:28:32;101912.95;;;-1.91;68.50
36964;BME280;22878;48.616;35.326;2023-02-16T15:31:04;101913.73;;;-1.99;70.58
36964;BME280;22878;48.616;35.326;2023-02-16T15:33:37;101914.90;;;-2.08;73.49
36964;BME280;22878;48.616;35.326;2023-02-16T15:36:26;101916.73;;;-2.16;76.69
36964;BME280;22878;48.616;35.326;2023-02-16T15:38:58;101914.64;;;-2.22;81.97
36964;BME280;22878;48.616;35.326;2023-02-16T15:43:57;101917.15;;;-2.26;85.81
36964;BME280;22878;48.616;35.326;2023-02-16T15:46:34;101922.80;;;-2.30;91.03
36964;BME280;22878;48.616;35.326;2023-02-16T15:49:20;101919.69;;;-2.33;90.90
36964;BME280;22878;48.616;35.326;2023-02-16T15:51:47;101920.00;;;-2.36;90.23
36964;BME280;22878;48.616;35.326;2023-02-16T15:54:21;101920.95;;;-2.39;90.54
36964;BME280;22878;48.616;35.326;2023-02-16T15:56:49;101919.78;;;-2.37;91.25
36964;BME280;22878;48.616;35.326;2023-02-16T15:59:36;101917.11;;;-2.37;91.22
36964;BME280;22878;48.616;35.326;2023-02-16T16:04:38;101916.52;;;-2.37;98.98
36964;BME280;22878;48.616;35.326;2023-02-16T16:07:05;101919.95;;;-2.37;97.61
36964;BME280;22878;48.616;35.326;2023-02-16T16:09:33;101919.01;;;-2.37;98.74
36964;BME280;22878;48.616;35.326;2023-02-16T16:12:02;101912.37;;;-2.39;99.89
36964;BME280;22878;48.616;35.326;2023-02-16T16:14:35;101909.90;;;-2.43;100.00
36964;BME280;22878;48.616;35.326;2023-02-16T16:17:03;101903.86;;;-2.48;100.00
36964;BME280;22878;48.616;35.326;2023-02-16T16:19:35;101900.05;;;-2.53;100.00
36964;BME280;22878;48.616;35.326;2023-02-16T16:22:02;101898.28;;;-2.58;100.00
36964;BME280;22878;48.616;35.326;2023-02-16T16:24:38;101898.95;;;-2.65;100.00
36964;BME280;22878;48.616;35.326;2023-02-16T16:27:11;101904.64;;;-2.70;100.00
36964;BME280;22878;48.616;35.326;2023-02-16T16:29:46;101900.65;;;-2.78;100.00
36964;BME280;22878;48.616;35.326;2023-02-16T16:32:26;101900.13;;;-2.86;100.00
36964;BME280;22878;48.616;35.326;2023-02-16T16:34:54;101895.67;;;-2.91;100.00
36964;BME280;22878;48.616;35.326;2023-02-16T16:37:27;101896.83;;;-2.90;100.00
36964;BME280;22878;48.616;35.326;2023-02-16T16:43:06;101895.32;;;-2.93;100.00
36964;BME280;22878;48.616;35.326;2023-02-16T16:45:33;101896.56;;;-2.91;100.00
36964;BME280;22878;48.616;35.326;2023-02-16T16:53:59;101898.91;;;-2.84;100.00
36964;BME280;22878;48.616;35.326;2023-02-16T16:59:46;101888.92;;;-2.77;100.00
36964;BME280;22878;48.616;35.326;2023-02-16T17:02:12;101893.95;;;-2.74;100.00
36964;BME280;22878;48.616;35.326;2023-02-16T17:07:59;101895.75;;;-2.68;100.00
36964;BME280;22878;48.616;35.326;2023-02-16T17:10:25;101895.64;;;-2.64;100.00
36964;BME280;22878;48.616;35.326;2023-02-16T17:12:52;101894.30;;;-2.61;100.00
36964;BME280;22878;48.616;35.326;2023-02-16T17:15:31;101897.84;;;-2.57;100.00
36964;BME280;22878;48.616;35.326;2023-02-16T17:17:58;101893.18;;;-2.53;100.00
36964;BME280;22878;48.616;35.326;2023-02-16T17:20:25;101892.36;;;-2.47;100.00
36964;BME280;22878;48.616;35.326;2023-02-16T17:22:50;101894.30;;;-2.45;100.00
36964;BME280;22878;48.616;35.326;2023-02-16T17:25:16;101891.53;;;-2.46;100.00
36964;BME280;22878;48.616;35.326;2023-02-16T17:27:41;101889.65;;;-2.45;100.00
36964;BME280;22878;48.616;35.326;2023-02-16T17:30:07;101889.87;;;-2.41;100.00
36964;BME280;22878;48.616;35.326;2023-02-16T17:32:35;101890.46;;;-2.38;100.00
36964;BME280;22878;48.616;35.326;2023-02-16T17:35:01;101887.77;;;-2.36;100.00
36964;BME280;22878;48.616;35.326;2023-02-16T17:37:26;101883.13;;;-2.35;100.00
36964;BME280;22878;48.616;35.326;2023-02-16T17:39:52;101881.83;;;-2.34;100.00
36964;BME280;22878;48.616;35.326;2023-02-16T17:42:17;101884.45;;;-2.32;100.00
36964;BME280;22878;48.616;35.326;2023-02-16T17:44:43;101878.07;;;-2.30;100.00
36964;BME280;22878;48.616;35.326;2023-02-16T17:47:12;101876.27;;;-2.27;100.00
36964;BME280;22878;48.616;35.326;2023-02-16T17:49:39;101881.16;;;-2.25;100.00
36964;BME280;22878;48.616;35.326;2023-02-16T17:52:10;101881.27;;;-2.24;100.00
36964;BME280;22878;48.616;35.326;2023-02-16T17:57:57;101881.33;;;-2.21;100.00
36964;BME280;22878;48.616;35.326;2023-02-16T18:00:23;101882.59;;;-2.20;100.00
36964;BME280;22878;48.616;35.326;2023-02-16T18:02:48;101883.71;;;-2.19;100.00
36964;BME280;22878;48.616;35.326;2023-02-16T18:05:14;101878.73;;;-2.16;100.00
36964;BME280;22878;48.616;35.326;2023-02-16T18:07:39;101875.73;;;-2.14;100.00
36964;BME280;22878;48.616;35.326;2023-02-16T18:10:05;101873.66;;;-2.11;100.00
36964;BME280;22878;48.616;35.326;2023-02-16T18:12:31;101872.45;;;-2.10;100.00
36964;BME280;22878;48.616;35.326;2023-02-16T18:14:57;101876.24;;;-2.07;100.00
36964;BME280;22878;48.616;35.326;2023-02-16T18:17:23;101874.79;;;-2.06;100.00
36964;BME280;22878;48.616;35.326;2023-02-16T18:19:48;101880.09;;;-2.07;100.00
36964;BME280;22878;48.616;35.326;2023-02-16T18:22:14;101878.83;;;-2.07;100.00
36964;BME280;22878;48.616;35.326;2023-02-16T18:24:39;101879.47;;;-2.06;100.00
36964;BME280;22878;48.616;35.326;2023-02-16T18:27:06;101883.55;;;-2.04;100.00
36964;BME280;22878;48.616;35.326;2023-02-16T18:29:31;101884.33;;;-2.01;100.00
36964;BME280;22878;48.616;35.326;2023-02-16T18:31:57;101879.33;;;-1.98;100.00
36964;BME280;22878;48.616;35.326;2023-02-16T18:34:22;101880.85;;;-1.98;100.00
36964;BME280;22878;48.616;35.326;2023-02-16T18:36:48;101881.05;;;-1.96;100.00
36964;BME280;22878;48.616;35.326;2023-02-16T18:39:13;101875.25;;;-1.94;100.00
36964;BME280;22878;48.616;35.326;2023-02-16T18:41:39;101871.69;;;-1.92;100.00
36964;BME280;22878;48.616;35.326;2023-02-16T18:44:05;101869.67;;;-1.90;100.00
36964;BME280;22878;48.616;35.326;2023-02-16T18:46:30;101874.83;;;-1.87;100.00
36964;BME280;22878;48.616;35.326;2023-02-16T18:48:56;101878.05;;;-1.85;100.00
36964;BME280;22878;48.616;35.326;2023-02-16T18:51:23;101865.34;;;-1.87;100.00